Terminal Aerodrome Forecast
Issued by NWS

Home | Current Version | Previous Version | Text Only | Print | Product List | Glossary On
Versions: 1 2 3 4 5 6 7 8 9 10 11 12 13 14 15
367
FTUS45 KVEF 212331
TAFDAG
TAF
KDAG 212331Z 2200/2224 25008KT P6SM FEW080 BKN200
     FM220600 24014G24KT P6SM SCT080 BKN200
     FM221800 26025G35KT P6SM BKN200=

USA.gov is the U.S. government's official web portal to all federal, state and local government web resources and services.